createdAt,value
2024-01-22T00:00:39.464Z,101213.59
2024-01-22T00:03:06.646Z,101194.53
2024-01-22T00:05:33.977Z,101207.03
2024-01-22T00:08:04.208Z,101195.28
2024-01-22T00:10:31.265Z,101192.56
2024-01-22T00:12:58.412Z,101209.63
2024-01-22T00:15:25.404Z,101205.31
2024-01-22T00:17:52.614Z,101197.44
2024-01-22T00:20:20.052Z,101193.31
2024-01-22T00:22:47.185Z,101227.06
2024-01-22T00:25:14.472Z,101196.09
2024-01-22T00:27:41.545Z,101221.75
2024-01-22T00:30:09.238Z,101201.41
2024-01-22T00:32:36.446Z,101237.00
2024-01-22T00:35:03.714Z,101229.00
2024-01-22T00:37:30.875Z,101206.09
2024-01-22T00:39:57.847Z,101213.72
2024-01-22T00:42:25.129Z,101171.25
2024-01-22T00:44:56.478Z,101195.91
2024-01-22T00:47:23.673Z,101194.16
2024-01-22T00:49:50.863Z,101171.47
2024-01-22T00:52:18.170Z,101213.75
2024-01-22T00:54:45.234Z,101208.66
2024-01-22T00:57:12.503Z,101232.75
2024-01-22T00:59:39.607Z,101210.03
2024-01-22T01:02:07.229Z,101206.91
2024-01-22T01:04:34.285Z,101231.78
2024-01-22T01:07:10.717Z,101187.94
2024-01-22T01:09:41.886Z,101229.00
2024-01-22T01:12:09.051Z,101200.72
2024-01-22T01:14:36.106Z,101242.22
2024-01-22T01:17:03.295Z,101198.81
2024-01-22T01:19:30.363Z,101235.44
2024-01-22T01:21:57.401Z,101218.00
2024-01-22T01:24:24.514Z,101208.97
2024-01-22T01:26:51.603Z,101225.75
2024-01-22T01:29:18.611Z,101213.84
2024-01-22T01:31:45.753Z,101237.28
2024-01-22T01:34:12.839Z,101232.91
2024-01-22T01:36:39.893Z,101237.78
2024-01-22T01:39:07.195Z,101254.47
2024-01-22T01:41:34.430Z,101243.47
2024-01-22T01:44:01.575Z,101267.66
2024-01-22T01:46:28.654Z,101238.09
2024-01-22T01:48:57.373Z,101265.34
2024-01-22T01:51:25.689Z,101205.81
2024-01-22T01:53:54.713Z,101246.56
2024-01-22T01:56:24.920Z,101237.06
2024-01-22T01:58:53.012Z,101266.44
2024-01-22T02:01:21.328Z,101231.88
2024-01-22T02:03:49.127Z,101245.66
2024-01-22T02:06:16.685Z,101251.41
2024-01-22T02:08:53.885Z,101197.81
2024-01-22T02:11:22.331Z,101247.56
2024-01-22T02:13:49.724Z,101253.72
2024-01-22T02:16:16.945Z,101261.94
2024-01-22T02:18:44.261Z,101224.47
2024-01-22T02:21:11.720Z,101251.84
2024-01-22T02:23:39.040Z,101254.06
2024-01-22T02:26:06.256Z,101260.13
2024-01-22T02:28:33.500Z,101248.44
2024-01-22T02:31:01.017Z,101266.88
2024-01-22T02:33:28.108Z,101283.16
2024-01-22T02:35:55.303Z,101252.75
2024-01-22T02:38:22.357Z,101259.28
2024-01-22T02:40:49.532Z,101260.16
2024-01-22T02:43:16.535Z,101255.72
2024-01-22T02:45:43.651Z,101279.75
2024-01-22T02:48:10.723Z,101286.25
2024-01-22T02:50:37.890Z,101299.88
2024-01-22T02:53:05.160Z,101292.13
2024-01-22T02:55:32.334Z,101322.88
2024-01-22T02:57:59.343Z,101303.47
2024-01-22T03:00:26.874Z,101281.25
2024-01-22T03:02:54.065Z,101315.06
2024-01-22T03:05:21.194Z,101320.28
2024-01-22T03:07:48.257Z,101243.09
2024-01-22T03:10:16.030Z,101333.38
2024-01-22T03:12:43.099Z,101315.53
2024-01-22T03:15:10.511Z,101326.63
2024-01-22T03:17:37.826Z,101311.22
2024-01-22T03:20:05.524Z,101339.75
2024-01-22T03:22:32.585Z,101321.22
2024-01-22T03:24:59.692Z,101360.81
2024-01-22T03:27:26.804Z,101347.28
2024-01-22T03:29:54.096Z,101349.44
2024-01-22T03:32:21.289Z,101336.13
2024-01-22T03:34:48.609Z,101335.75
2024-01-22T03:37:15.733Z,101341.31
2024-01-22T03:39:42.938Z,101330.44
2024-01-22T03:42:09.925Z,101357.34
2024-01-22T03:44:37.038Z,101368.22
2024-01-22T03:47:04.045Z,101342.75
2024-01-22T03:49:31.241Z,101338.69
2024-01-22T03:51:58.314Z,101356.25
2024-01-22T03:54:25.382Z,101337.88
2024-01-22T03:56:52.478Z,101356.53
2024-01-22T03:59:19.793Z,101309.19
2024-01-22T04:01:49.186Z,101323.00
2024-01-22T04:04:16.382Z,101358.22
2024-01-22T04:06:43.612Z,101391.78
2024-01-22T04:09:10.835Z,101334.16
2024-01-22T04:11:37.966Z,101355.69
2024-01-22T04:14:05.100Z,101320.97
2024-01-22T04:16:32.084Z,101370.22
2024-01-22T04:18:59.334Z,101371.91
2024-01-22T04:21:26.494Z,101353.09
2024-01-22T04:23:54.616Z,101367.25
2024-01-22T04:26:21.719Z,101337.22
2024-01-22T04:28:48.833Z,101362.84
2024-01-22T04:31:15.851Z,101367.84
2024-01-22T04:33:45.863Z,101351.00
2024-01-22T04:36:13.182Z,101357.16
2024-01-22T04:38:40.287Z,101357.06
2024-01-22T04:41:07.337Z,101339.25
2024-01-22T04:43:34.417Z,101345.47
2024-01-22T04:46:01.381Z,101355.28
2024-01-22T04:48:28.575Z,101373.63
2024-01-22T04:50:55.672Z,101342.81
2024-01-22T04:53:22.704Z,101358.31
2024-01-22T04:55:49.773Z,101358.88
2024-01-22T04:58:16.819Z,101391.75
2024-01-22T05:00:43.839Z,101394.22
2024-01-22T05:03:10.942Z,101406.84
2024-01-22T05:05:38.744Z,101417.84
2024-01-22T05:08:06.640Z,101384.75
2024-01-22T05:10:33.794Z,101412.28
2024-01-22T05:13:01.038Z,101395.44
2024-01-22T05:15:29.341Z,101398.66
2024-01-22T05:17:56.546Z,101414.19
2024-01-22T05:20:23.703Z,101404.06
2024-01-22T05:22:50.719Z,101409.13
2024-01-22T05:25:17.720Z,101430.34
2024-01-22T05:27:44.802Z,101399.53
2024-01-22T05:30:12.305Z,101395.56
2024-01-22T05:32:39.515Z,101434.91
2024-01-22T05:35:06.922Z,101398.91
2024-01-22T05:37:33.958Z,101397.34
2024-01-22T05:40:01.181Z,101436.44
2024-01-22T05:42:28.260Z,101411.78
2024-01-22T05:44:55.306Z,101435.63
2024-01-22T05:47:22.375Z,101436.00
2024-01-22T05:49:49.425Z,101383.00
2024-01-22T05:52:16.472Z,101456.06
2024-01-22T05:54:43.434Z,101445.84
2024-01-22T05:57:10.465Z,101453.28
2024-01-22T05:59:39.790Z,101441.47
2024-01-22T06:02:07.088Z,101455.00
2024-01-22T06:04:34.150Z,101443.78
2024-01-22T06:07:05.372Z,101437.69
2024-01-22T06:09:33.373Z,101473.41
2024-01-22T06:12:00.540Z,101435.50
2024-01-22T06:14:27.626Z,101488.59
2024-01-22T06:16:54.649Z,101477.03
2024-01-22T06:19:21.766Z,101456.13
2024-01-22T06:21:48.816Z,101484.78
2024-01-22T06:24:16.301Z,101485.66
2024-01-22T06:26:43.534Z,101479.28
2024-01-22T06:29:10.559Z,101470.97
2024-01-22T06:31:37.499Z,101450.44
2024-01-22T06:34:04.853Z,101435.94
2024-01-22T06:36:31.884Z,101441.66
2024-01-22T06:38:59.185Z,101484.47
2024-01-22T06:41:26.213Z,101490.84
2024-01-22T06:43:53.317Z,101490.09
2024-01-22T06:46:20.316Z,101501.56
2024-01-22T06:48:47.562Z,101469.34
2024-01-22T06:51:14.703Z,101465.78
2024-01-22T06:53:41.918Z,101443.31
2024-01-22T06:56:11.741Z,101422.84
2024-01-22T06:58:38.755Z,101483.22
2024-01-22T07:01:06.000Z,101479.22
2024-01-22T07:03:33.373Z,101478.31
2024-01-22T07:06:03.992Z,101480.50
2024-01-22T07:08:34.347Z,101499.66
2024-01-22T07:11:01.560Z,101506.50
2024-01-22T07:13:28.618Z,101483.25
2024-01-22T07:15:55.894Z,101486.31
2024-01-22T07:18:23.164Z,101503.22
2024-01-22T07:20:50.330Z,101470.06
2024-01-22T07:23:17.441Z,101504.47
2024-01-22T07:25:49.675Z,101503.72
2024-01-22T07:28:16.871Z,101496.41
2024-01-22T07:30:43.858Z,101497.63
2024-01-22T07:33:11.102Z,101514.88
2024-01-22T07:35:38.331Z,101489.22
2024-01-22T07:38:05.540Z,101511.53
2024-01-22T07:40:32.771Z,101482.78
2024-01-22T07:43:00.314Z,101512.19
2024-01-22T07:45:27.377Z,101504.59
2024-01-22T07:47:54.976Z,101521.38
2024-01-22T07:50:22.051Z,101541.13
2024-01-22T07:52:49.203Z,101540.66
2024-01-22T07:55:16.648Z,101529.13
2024-01-22T07:57:43.767Z,101526.22
2024-01-22T08:00:11.328Z,101522.31
2024-01-22T08:02:42.021Z,101524.91
2024-01-22T08:05:09.747Z,101517.66
2024-01-22T08:07:39.334Z,101516.38
2024-01-22T08:10:06.826Z,101519.84
2024-01-22T08:12:36.408Z,101507.34
2024-01-22T08:15:04.059Z,101534.09
2024-01-22T08:17:33.754Z,101479.41
2024-01-22T08:20:03.207Z,101512.00
2024-01-22T08:22:30.383Z,101520.19
2024-01-22T08:24:57.350Z,101533.97
2024-01-22T08:27:24.494Z,101523.59
2024-01-22T08:29:51.604Z,101485.75
2024-01-22T08:32:18.744Z,101473.97
2024-01-22T08:34:46.092Z,101523.78
2024-01-22T08:37:13.273Z,101529.69
2024-01-22T08:39:40.729Z,101502.41
2024-01-22T08:42:07.818Z,101533.38
2024-01-22T08:44:36.149Z,101509.47
2024-01-22T08:47:03.882Z,101499.63
2024-01-22T08:49:31.451Z,101501.16
2024-01-22T08:51:59.160Z,101488.00
2024-01-22T08:54:26.477Z,101498.44
2024-01-22T08:56:53.578Z,101513.50
2024-01-22T08:59:21.282Z,101482.94
2024-01-22T09:01:48.739Z,101509.22
2024-01-22T09:04:15.895Z,101508.22
2024-01-22T09:06:43.278Z,101514.34
2024-01-22T09:09:14.046Z,101499.06
2024-01-22T09:11:41.418Z,101513.41
2024-01-22T09:14:10.534Z,101486.09
2024-01-22T09:16:37.725Z,101513.59
2024-01-22T09:19:07.623Z,101505.78
2024-01-22T09:21:34.960Z,101501.00
2024-01-22T09:24:01.946Z,101495.19
2024-01-22T09:26:29.361Z,101478.00
2024-01-22T09:28:56.441Z,101455.38
2024-01-22T09:31:23.650Z,101494.34
2024-01-22T09:33:50.720Z,101511.19
2024-01-22T09:36:18.798Z,101463.25
2024-01-22T09:38:46.360Z,101502.78
2024-01-22T09:41:15.121Z,101489.03
2024-01-22T09:43:44.000Z,101488.16
2024-01-22T09:46:11.814Z,101490.78
2024-01-22T09:48:39.144Z,101508.84
2024-01-22T09:51:07.124Z,101487.38
2024-01-22T09:53:38.445Z,101458.94
2024-01-22T09:56:09.455Z,101481.44
2024-01-22T09:58:53.573Z,101467.63
2024-01-22T10:01:20.938Z,101481.06
2024-01-22T10:03:51.231Z,101493.19
2024-01-22T10:06:18.746Z,101466.31
2024-01-22T10:08:58.172Z,101477.13
2024-01-22T10:11:28.280Z,101468.16
2024-01-22T10:13:57.839Z,101460.56
2024-01-22T10:16:31.773Z,101468.41
2024-01-22T10:19:03.431Z,101455.00
2024-01-22T10:21:31.524Z,101486.22
2024-01-22T10:24:03.168Z,101425.19
2024-01-22T10:26:33.551Z,101487.41
2024-01-22T10:29:20.216Z,101440.13
2024-01-22T10:32:01.433Z,101439.84
2024-01-22T10:34:42.840Z,101480.47
2024-01-22T10:37:11.863Z,101455.47
2024-01-22T10:39:43.379Z,101458.03
2024-01-22T10:42:15.096Z,101440.84
2024-01-22T10:44:47.694Z,101462.03
2024-01-22T10:47:16.317Z,101451.22
2024-01-22T10:49:49.637Z,101456.41
2024-01-22T10:52:20.187Z,101458.56
2024-01-22T10:54:50.828Z,101471.50
2024-01-22T10:57:30.458Z,101462.28
2024-01-22T11:00:03.348Z,101435.84
2024-01-22T11:02:36.587Z,101432.69
2024-01-22T11:05:12.733Z,101457.31
2024-01-22T11:07:41.361Z,101458.72
2024-01-22T11:10:15.673Z,101457.00
2024-01-22T11:12:55.158Z,101459.78
2024-01-22T11:15:22.266Z,101448.31
2024-01-22T11:17:49.715Z,101455.31
2024-01-22T11:20:17.471Z,101487.72
2024-01-22T11:23:03.550Z,101455.47
2024-01-22T11:25:30.933Z,101470.78
2024-01-22T11:28:11.592Z,101469.31
2024-01-22T11:30:43.165Z,101452.22
2024-01-22T11:33:22.927Z,101454.28
2024-01-22T11:35:50.732Z,101444.03
2024-01-22T11:38:46.221Z,101464.84
2024-01-22T11:41:21.654Z,101459.56
2024-01-22T11:43:52.077Z,101435.16
2024-01-22T11:46:21.623Z,101414.28
2024-01-22T11:48:57.551Z,101483.19
2024-01-22T11:51:30.854Z,101461.38
2024-01-22T11:53:59.154Z,101468.03
2024-01-22T11:56:26.419Z,101465.50
2024-01-22T11:59:04.064Z,101470.00
2024-01-22T12:01:34.234Z,101473.91
2024-01-22T12:04:17.379Z,101452.94
2024-01-22T12:06:52.033Z,101436.59
2024-01-22T12:09:21.261Z,101429.53
2024-01-22T12:11:54.154Z,101441.34
2024-01-22T12:14:22.230Z,101438.94
2024-01-22T12:17:02.498Z,101404.81
2024-01-22T12:19:32.440Z,101456.00
2024-01-22T12:22:02.770Z,101436.91
2024-01-22T12:24:30.034Z,101443.75
2024-01-22T12:26:58.394Z,101451.16
2024-01-22T12:29:27.555Z,101414.97
2024-01-22T12:32:11.294Z,101418.88
2024-01-22T12:34:41.306Z,101413.78
2024-01-22T12:37:31.856Z,101402.06
2024-01-22T12:40:13.074Z,101434.06
2024-01-22T12:42:40.401Z,101435.56
2024-01-22T12:45:11.389Z,101444.34
2024-01-22T12:47:40.188Z,101427.03
2024-01-22T12:50:09.437Z,101398.00
2024-01-22T12:52:37.139Z,101446.50
2024-01-22T12:55:04.414Z,101416.50
2024-01-22T12:57:31.755Z,101422.41
2024-01-22T12:59:59.211Z,101407.31
2024-01-22T13:02:26.562Z,101449.00
2024-01-22T13:04:53.649Z,101396.28
2024-01-22T13:07:20.953Z,101426.97
2024-01-22T13:09:48.079Z,101420.88
2024-01-22T13:12:17.154Z,101421.72
2024-01-22T13:14:44.352Z,101430.47
2024-01-22T13:17:11.543Z,101405.34
2024-01-22T13:19:41.672Z,101410.34
2024-01-22T13:22:11.058Z,101426.50
2024-01-22T13:24:38.128Z,101350.16
2024-01-22T13:27:05.607Z,101420.63
2024-01-22T13:29:33.013Z,101420.28
2024-01-22T13:32:00.321Z,101417.28
2024-01-22T13:34:27.536Z,101414.09
2024-01-22T13:36:55.629Z,101380.69
2024-01-22T13:39:23.132Z,101398.16
2024-01-22T13:41:50.372Z,101418.38
2024-01-22T13:44:22.557Z,101403.38
2024-01-22T13:46:50.928Z,101422.75
2024-01-22T13:49:18.647Z,101404.38
2024-01-22T13:51:45.835Z,101392.84
2024-01-22T13:54:13.539Z,101374.94
2024-01-22T13:56:40.907Z,101399.81
2024-01-22T13:59:08.058Z,101422.63
2024-01-22T14:01:35.947Z,101393.13
2024-01-22T14:04:03.213Z,101414.69
2024-01-22T14:06:30.786Z,101397.38
2024-01-22T14:08:58.500Z,101407.13
2024-01-22T14:11:25.825Z,101406.94
2024-01-22T14:13:53.742Z,101436.22
2024-01-22T14:16:20.939Z,101421.53
2024-01-22T14:18:48.847Z,101393.41
2024-01-22T14:21:17.570Z,101439.28
2024-01-22T14:23:46.086Z,101436.13
2024-01-22T14:26:16.079Z,101429.06
2024-01-22T14:28:44.138Z,101398.97
2024-01-22T14:31:12.482Z,101432.47
2024-01-22T14:33:39.748Z,101428.88
2024-01-22T14:36:08.508Z,101409.19
2024-01-22T14:38:36.470Z,101415.25
2024-01-22T14:41:06.598Z,101413.66
2024-01-22T14:43:33.857Z,101399.53
2024-01-22T14:46:01.088Z,101416.38
2024-01-22T14:48:28.296Z,101416.03
2024-01-22T14:50:55.589Z,101393.66
2024-01-22T14:53:22.753Z,101398.47
2024-01-22T14:55:52.617Z,101420.75
2024-01-22T14:58:19.665Z,101426.56
2024-01-22T15:00:46.653Z,101399.28
2024-01-22T15:03:14.021Z,101441.72
2024-01-22T15:05:41.338Z,101446.34
2024-01-22T15:08:08.433Z,101432.22
2024-01-22T15:10:41.699Z,101430.16
2024-01-22T15:13:09.423Z,101417.69
2024-01-22T15:15:37.582Z,101445.63
2024-01-22T15:18:08.585Z,101422.31
2024-01-22T15:20:35.976Z,101437.09
2024-01-22T15:23:03.311Z,101418.91
2024-01-22T15:25:34.383Z,101417.44
2024-01-22T15:28:01.625Z,101413.03
2024-01-22T15:30:30.640Z,101480.06
2024-01-22T15:32:58.045Z,101429.50
2024-01-22T15:35:25.421Z,101448.84
2024-01-22T15:37:54.761Z,101396.06
2024-01-22T15:40:22.092Z,101433.91
2024-01-22T15:42:49.324Z,101447.53
2024-01-22T15:45:16.539Z,101439.94
2024-01-22T15:47:44.430Z,101436.47
2024-01-22T15:50:11.964Z,101433.66
2024-01-22T15:52:40.157Z,101420.44
2024-01-22T15:55:07.618Z,101436.22
2024-01-22T15:57:39.354Z,101422.97
2024-01-22T16:00:08.161Z,101462.78
2024-01-22T16:02:38.688Z,101429.50
2024-01-22T16:05:06.495Z,101450.47
2024-01-22T16:07:33.729Z,101358.72
2024-01-22T16:10:01.049Z,101449.13
2024-01-22T16:12:28.869Z,101435.16
2024-01-22T16:14:56.222Z,101451.34
2024-01-22T16:17:24.124Z,101409.25
2024-01-22T16:19:51.667Z,101431.59
2024-01-22T16:22:18.945Z,101436.66
2024-01-22T16:24:46.279Z,101398.28
2024-01-22T16:27:15.788Z,101439.94
2024-01-22T16:29:46.084Z,101440.28
2024-01-22T16:32:15.938Z,101435.22
2024-01-22T16:34:43.211Z,101434.66
2024-01-22T16:37:10.731Z,101398.72
2024-01-22T16:39:38.295Z,101444.75
2024-01-22T16:42:11.470Z,101419.56
2024-01-22T16:44:38.784Z,101414.03
2024-01-22T16:47:24.440Z,101439.00
2024-01-22T16:50:11.284Z,101444.41
2024-01-22T16:52:41.599Z,101444.50
2024-01-22T16:55:11.450Z,101417.22
2024-01-22T16:57:39.789Z,101445.00
2024-01-22T17:00:07.710Z,101429.09
2024-01-22T17:02:35.152Z,101424.22
2024-01-22T17:05:07.742Z,101397.53
2024-01-22T17:07:37.523Z,101451.53
2024-01-22T17:10:10.071Z,101400.31
2024-01-22T17:12:37.175Z,101421.63
2024-01-22T17:15:05.635Z,101410.59
2024-01-22T17:17:32.895Z,101419.78
2024-01-22T17:20:00.165Z,101388.59
2024-01-22T17:22:28.926Z,101404.50
2024-01-22T17:24:56.121Z,101405.84
2024-01-22T17:27:23.438Z,101420.06
2024-01-22T17:29:50.641Z,101404.72
2024-01-22T17:32:18.193Z,101405.28
2024-01-22T17:34:45.681Z,101420.41
2024-01-22T17:37:13.810Z,101428.66
2024-01-22T17:39:46.524Z,101424.72
2024-01-22T17:42:21.698Z,101421.69
2024-01-22T17:44:55.082Z,101414.41
2024-01-22T17:47:22.466Z,101398.19
2024-01-22T17:49:49.676Z,101415.56
2024-01-22T17:52:16.992Z,101389.72
2024-01-22T17:54:44.296Z,101411.72
2024-01-22T17:57:11.792Z,101417.34
2024-01-22T17:59:38.975Z,101397.00
2024-01-22T18:02:06.871Z,101408.72
2024-01-22T18:04:34.338Z,101389.41
2024-01-22T18:07:01.751Z,101355.81
2024-01-22T18:09:30.077Z,101388.13
2024-01-22T18:11:57.396Z,101388.16
2024-01-22T18:14:24.516Z,101363.63
2024-01-22T18:16:51.738Z,101375.19
2024-01-22T18:19:19.622Z,101332.47
2024-01-22T18:21:47.069Z,101384.97
2024-01-22T18:24:15.486Z,101368.19
2024-01-22T18:26:42.761Z,101370.44
2024-01-22T18:29:09.842Z,101371.09
2024-01-22T18:31:37.102Z,101363.22
2024-01-22T18:34:06.564Z,101377.38
2024-01-22T18:36:39.134Z,101345.38
2024-01-22T18:46:53.869Z,101340.84
2024-01-22T18:49:21.259Z,101338.53
2024-01-22T18:51:48.823Z,101374.56
2024-01-22T18:54:16.401Z,101359.34
2024-01-22T18:56:44.305Z,101369.91
2024-01-22T18:59:11.483Z,101358.19
2024-01-22T19:01:38.736Z,101375.06
2024-01-22T19:04:06.293Z,101368.66
2024-01-22T19:06:35.351Z,101336.00
2024-01-22T19:09:02.924Z,101351.78
2024-01-22T19:11:36.987Z,101328.16
2024-01-22T19:14:19.489Z,101346.78
2024-01-22T19:16:46.917Z,101347.03
2024-01-22T19:19:37.965Z,101293.75
2024-01-22T19:22:18.525Z,101283.53
2024-01-22T19:24:45.723Z,101301.25
2024-01-22T19:27:14.468Z,101323.47
2024-01-22T19:29:41.578Z,101280.34
2024-01-22T19:32:09.294Z,101324.59
2024-01-22T19:34:40.500Z,101279.28
2024-01-22T19:37:08.082Z,101297.84
2024-01-22T19:39:35.157Z,101315.44
2024-01-22T19:42:02.492Z,101305.44
2024-01-22T19:44:29.496Z,101274.09
2024-01-22T19:46:56.710Z,101304.56
2024-01-22T19:49:23.692Z,101299.75
2024-01-22T19:51:50.877Z,101280.38
2024-01-22T19:54:18.131Z,101262.88
2024-01-22T19:56:45.985Z,101296.25
2024-01-22T19:59:13.314Z,101290.44
2024-01-22T20:01:40.528Z,101306.63
2024-01-22T20:04:08.575Z,101301.69
2024-01-22T20:06:35.841Z,101279.97
2024-01-22T20:09:03.021Z,101254.59
2024-01-22T20:11:30.239Z,101300.47
2024-01-22T20:13:57.243Z,101310.38
2024-01-22T20:16:24.424Z,101263.03
2024-01-22T20:18:53.819Z,101313.94
2024-01-22T20:21:21.723Z,101277.91
2024-01-22T20:23:56.637Z,101286.50
2024-01-22T20:26:32.539Z,101292.94
2024-01-22T20:28:59.593Z,101315.13
2024-01-22T20:31:26.650Z,101297.38
2024-01-22T20:33:53.858Z,101312.94
2024-01-22T20:36:23.052Z,101306.16
2024-01-22T20:38:50.202Z,101278.22
2024-01-22T20:41:17.393Z,101286.88
2024-01-22T20:43:44.450Z,101249.88
2024-01-22T20:46:11.574Z,101233.88
2024-01-22T20:48:38.950Z,101241.16
2024-01-22T20:51:06.710Z,101281.09
2024-01-22T20:53:33.742Z,101242.03
2024-01-22T20:56:01.670Z,101252.75
2024-01-22T20:58:31.104Z,101239.91
2024-01-22T21:00:58.586Z,101259.81
2024-01-22T21:03:25.915Z,101247.41
2024-01-22T21:05:53.538Z,101236.97
2024-01-22T21:08:20.703Z,101233.44
2024-01-22T21:10:47.854Z,101211.53
2024-01-22T21:13:15.265Z,101240.22
2024-01-22T21:15:42.482Z,101253.00
2024-01-22T21:18:09.742Z,101250.66
2024-01-22T21:20:37.429Z,101216.09
2024-01-22T21:23:04.757Z,101221.91
2024-01-22T21:25:31.931Z,101243.81
2024-01-22T21:27:58.893Z,101244.13
2024-01-22T21:30:26.223Z,101215.88
2024-01-22T21:32:54.226Z,101207.53
2024-01-22T21:35:21.303Z,101217.38
2024-01-22T21:37:49.541Z,101206.22
2024-01-22T21:40:16.707Z,101201.53
2024-01-22T21:42:43.948Z,101207.84
2024-01-22T21:45:10.978Z,101215.38
2024-01-22T21:47:38.024Z,101207.63
2024-01-22T21:50:05.338Z,101158.50
2024-01-22T21:52:32.439Z,101207.03
2024-01-22T21:54:59.969Z,101177.22
2024-01-22T21:57:27.220Z,101198.81
2024-01-22T21:59:54.323Z,101175.66
2024-01-22T22:02:21.933Z,101142.97
2024-01-22T22:04:49.265Z,101175.03
2024-01-22T22:07:16.407Z,101166.06
2024-01-22T22:09:43.657Z,101178.63
2024-01-22T22:12:11.739Z,101182.97
2024-01-22T22:14:38.776Z,101178.44
2024-01-22T22:17:06.274Z,101170.38
2024-01-22T22:19:33.735Z,101159.13
2024-01-22T22:22:00.939Z,101186.72
2024-01-22T22:24:28.030Z,101149.84
2024-01-22T22:26:55.168Z,101145.00
2024-01-22T22:29:22.315Z,101148.31
2024-01-22T22:31:49.309Z,101147.91
2024-01-22T22:34:16.847Z,101146.31
2024-01-22T22:36:44.163Z,101148.94
2024-01-22T22:39:11.314Z,101143.84
2024-01-22T22:41:41.408Z,101141.97
2024-01-22T22:44:08.540Z,101136.16
2024-01-22T22:46:35.526Z,101164.69
2024-01-22T22:49:02.636Z,101150.88
2024-01-22T22:51:29.648Z,101151.22
2024-01-22T22:53:56.892Z,101148.13
2024-01-22T22:56:24.004Z,101142.59
2024-01-22T22:58:51.033Z,101150.25
2024-01-22T23:01:18.046Z,101157.28
2024-01-22T23:03:45.295Z,101123.72
2024-01-22T23:06:12.734Z,101132.69
2024-01-22T23:08:39.802Z,101160.00
2024-01-22T23:11:06.857Z,101148.28
2024-01-22T23:13:33.861Z,101151.91
2024-01-22T23:16:00.878Z,101138.66
2024-01-22T23:18:28.037Z,101137.91
2024-01-22T23:20:55.258Z,101133.47
2024-01-22T23:23:22.278Z,101146.81
2024-01-22T23:25:49.327Z,101119.69
2024-01-22T23:28:16.303Z,101140.91
2024-01-22T23:30:43.389Z,101140.34
2024-01-22T23:33:10.477Z,101148.03
2024-01-22T23:35:37.587Z,101105.16
2024-01-22T23:38:04.829Z,101120.94
2024-01-22T23:40:31.882Z,101134.66
2024-01-22T23:42:58.882Z,101128.59
2024-01-22T23:46:07.250Z,101115.72
2024-01-22T23:52:19.884Z,101142.91
2024-01-22T23:54:46.917Z,101129.19
2024-01-22T23:57:13.906Z,101131.94
2024-01-22T23:59:42.230Z,101148.41
